createdAt,value
2022-09-03T00:01:01.834Z,17.52
2022-09-03T00:03:40.037Z,17.52
2022-09-03T00:06:21.161Z,17.48
2022-09-03T00:08:53.769Z,17.41
2022-09-03T00:11:23.804Z,17.37
2022-09-03T00:14:03.282Z,17.39
2022-09-03T00:16:50.876Z,17.38
2022-09-03T00:19:23.270Z,17.38
2022-09-03T00:21:55.745Z,17.36
2022-09-03T00:24:27.114Z,17.30
2022-09-03T00:26:59.372Z,17.34
2022-09-03T00:29:49.510Z,17.29
2022-09-03T00:32:22.744Z,17.26
2022-09-03T00:34:56.919Z,17.28
2022-09-03T00:37:28.091Z,17.26
2022-09-03T00:39:59.301Z,17.25
2022-09-03T00:42:49.970Z,17.27
2022-09-03T00:45:34.576Z,17.29
2022-09-03T00:48:12.803Z,17.26
2022-09-03T00:51:00.613Z,17.18
2022-09-03T00:53:33.056Z,17.15
2022-09-03T00:56:22.410Z,17.10
2022-09-03T00:59:01.717Z,17.08
2022-09-03T01:01:37.320Z,17.08
2022-09-03T01:04:31.388Z,17.02
2022-09-03T01:07:16.060Z,17.04
2022-09-03T01:10:19.094Z,17.02
2022-09-03T01:12:51.654Z,16.97
2022-09-03T01:15:27.860Z,16.91
2022-09-03T01:18:12.546Z,16.91
2022-09-03T01:21:06.405Z,16.84
2022-09-03T01:23:41.761Z,16.81
2022-09-03T01:26:38.516Z,16.81
2022-09-03T01:29:35.764Z,16.83
2022-09-03T01:32:10.090Z,16.79
2022-09-03T01:34:40.535Z,16.72
2022-09-03T01:37:24.955Z,16.70
2022-09-03T01:40:03.302Z,16.65
2022-09-03T01:42:44.906Z,16.62
2022-09-03T01:45:29.613Z,16.55
2022-09-03T01:48:34.105Z,16.54
2022-09-03T01:51:12.830Z,16.54
2022-09-03T01:54:21.440Z,16.48
2022-09-03T01:57:35.335Z,16.43
2022-09-03T02:00:00.367Z,16.37
2022-09-03T02:02:30.951Z,16.33
2022-09-03T02:05:09.427Z,16.32
2022-09-03T02:07:41.901Z,16.32
2022-09-03T02:10:17.449Z,16.26
2022-09-03T02:12:55.221Z,16.16
2022-09-03T02:15:26.232Z,16.12
2022-09-03T02:17:57.488Z,16.10
2022-09-03T02:20:28.279Z,16.11
2022-09-03T02:22:59.112Z,16.11
2022-09-03T02:25:34.659Z,16.03
2022-09-03T02:28:11.213Z,15.99
2022-09-03T02:30:37.811Z,15.98
2022-09-03T02:33:07.660Z,15.96
2022-09-03T02:35:37.251Z,15.90
2022-09-03T02:38:15.592Z,15.86
2022-09-03T02:40:45.871Z,15.91
2022-09-03T02:43:18.608Z,15.86
2022-09-03T02:45:49.856Z,15.85
2022-09-03T02:48:21.951Z,15.80
2022-09-03T02:50:51.877Z,15.76
2022-09-03T02:53:21.770Z,15.70
2022-09-03T02:55:51.209Z,15.72
2022-09-03T02:58:21.171Z,15.72
2022-09-03T03:00:50.849Z,15.73
2022-09-03T03:03:20.506Z,15.72
2022-09-03T03:05:51.916Z,15.70
2022-09-03T03:08:23.988Z,15.65
2022-09-03T03:10:54.150Z,15.62
2022-09-03T03:13:24.003Z,15.63
2022-09-03T03:15:55.055Z,15.62
2022-09-03T03:18:24.941Z,15.60
2022-09-03T03:20:54.568Z,15.57
2022-09-03T03:23:23.849Z,15.55
2022-09-03T03:25:53.095Z,15.59
2022-09-03T03:28:22.535Z,15.52
2022-09-03T03:30:53.061Z,15.50
2022-09-03T03:33:22.628Z,15.50
2022-09-03T03:35:53.609Z,15.49
2022-09-03T03:38:23.022Z,15.50
2022-09-03T03:40:52.310Z,15.46
2022-09-03T03:43:21.683Z,15.41
2022-09-03T03:46:00.846Z,15.11
2022-09-03T03:48:30.153Z,15.37
2022-09-03T03:51:05.756Z,15.39
2022-09-03T03:53:36.694Z,15.39
2022-09-03T03:56:09.726Z,15.36
2022-09-03T03:58:41.734Z,15.32
2022-09-03T04:01:14.296Z,15.25
2022-09-03T04:03:43.078Z,15.22
2022-09-03T04:06:14.068Z,15.22
2022-09-03T04:08:45.832Z,15.19
2022-09-03T04:11:18.165Z,15.15
2022-09-03T04:13:48.345Z,15.16
2022-09-03T04:16:20.816Z,15.12
2022-09-03T04:18:52.039Z,15.12
2022-09-03T04:21:24.432Z,15.10
2022-09-03T04:23:55.525Z,15.06
2022-09-03T04:26:29.611Z,15.11
2022-09-03T04:29:10.184Z,15.06
2022-09-03T04:31:41.717Z,14.98
2022-09-03T04:34:11.210Z,14.99
2022-09-03T04:36:40.545Z,14.95
2022-09-03T04:39:09.818Z,14.92
2022-09-03T04:41:39.469Z,14.91
2022-09-03T04:44:08.755Z,14.90
2022-09-03T04:46:39.371Z,14.92
2022-09-03T04:49:09.868Z,14.87
2022-09-03T04:51:39.272Z,14.93
2022-09-03T04:54:10.395Z,14.90
2022-09-03T04:56:40.737Z,14.86
2022-09-03T04:59:11.214Z,14.89
2022-09-03T05:01:41.575Z,14.88
2022-09-03T05:04:11.070Z,14.87
2022-09-03T05:06:40.391Z,14.89
2022-09-03T05:09:09.801Z,14.86
2022-09-03T05:11:39.094Z,14.89
2022-09-03T05:14:10.129Z,14.87
2022-09-03T05:16:39.896Z,14.93
2022-09-03T05:19:09.705Z,14.98
2022-09-03T05:21:40.470Z,14.99
2022-09-03T05:24:11.450Z,15.06
2022-09-03T05:26:41.428Z,15.12
2022-09-03T05:29:10.844Z,15.18
2022-09-03T05:31:40.659Z,15.21
2022-09-03T05:34:16.605Z,15.28
2022-09-03T05:36:41.449Z,15.41
2022-09-03T05:39:10.776Z,15.46
2022-09-03T05:41:40.394Z,15.57
2022-09-03T05:44:10.092Z,15.67
2022-09-03T05:46:39.554Z,15.80
2022-09-03T05:49:09.210Z,16.01
2022-09-03T05:51:42.709Z,16.11
2022-09-03T05:54:12.328Z,16.50
2022-09-03T05:56:42.822Z,16.84
2022-09-03T05:59:13.892Z,17.41
2022-09-03T06:01:50.978Z,18.23
2022-09-03T06:04:17.413Z,19.33
2022-09-03T06:06:48.593Z,20.87
2022-09-03T06:09:20.478Z,21.61
2022-09-03T06:11:50.807Z,22.44
2022-09-03T06:14:23.836Z,22.27
2022-09-03T06:16:53.466Z,22.27
2022-09-03T06:19:23.121Z,22.51
2022-09-03T06:21:52.479Z,20.68
2022-09-03T06:24:26.268Z,19.73
2022-09-03T06:26:56.132Z,18.99
2022-09-03T06:29:25.531Z,18.23
2022-09-03T06:31:55.993Z,17.91
2022-09-03T06:34:27.266Z,17.88
2022-09-03T06:36:57.578Z,17.84
2022-09-03T06:39:27.217Z,17.55
2022-09-03T06:41:56.785Z,17.46
2022-09-03T06:44:27.769Z,17.42
2022-09-03T06:46:58.853Z,17.48
2022-09-03T06:49:28.214Z,17.49
2022-09-03T06:51:57.727Z,17.57
2022-09-03T06:54:26.985Z,17.74
2022-09-03T06:56:56.902Z,17.75
2022-09-03T06:59:26.835Z,17.82
2022-09-03T07:01:58.276Z,17.89
2022-09-03T07:04:27.586Z,17.67
2022-09-03T07:06:58.725Z,17.54
2022-09-03T07:09:28.077Z,17.51
2022-09-03T07:11:57.449Z,17.48
2022-09-03T07:14:26.792Z,17.45
2022-09-03T07:16:56.755Z,17.34
2022-09-03T07:19:26.015Z,17.12
2022-09-03T07:21:55.297Z,17.12
2022-09-03T07:24:25.027Z,17.20
2022-09-03T07:26:55.036Z,17.21
2022-09-03T07:29:24.586Z,17.28
2022-09-03T07:31:53.924Z,17.25
2022-09-03T07:34:27.262Z,17.39
2022-09-03T07:36:56.664Z,17.47
2022-09-03T07:39:26.023Z,17.60
2022-09-03T07:41:55.348Z,17.81
2022-09-03T07:44:25.055Z,18.16
2022-09-03T07:46:54.424Z,18.43
2022-09-03T07:49:23.781Z,18.71
2022-09-03T07:51:55.860Z,18.86
2022-09-03T07:54:27.046Z,18.91
2022-09-03T07:56:57.536Z,18.91
2022-09-03T07:59:26.937Z,19.12
2022-09-03T08:01:56.580Z,19.05
2022-09-03T08:04:26.012Z,19.56
2022-09-03T08:06:57.081Z,19.39
2022-09-03T08:09:26.409Z,19.41
2022-09-03T08:11:55.740Z,19.36
2022-09-03T08:14:25.010Z,19.44
2022-09-03T08:16:54.899Z,19.73
2022-09-03T08:19:24.144Z,19.67
2022-09-03T08:21:53.659Z,19.98
2022-09-03T08:24:24.894Z,20.30
2022-09-03T08:26:54.239Z,20.53
2022-09-03T08:29:24.062Z,20.87
2022-09-03T08:31:54.163Z,20.90
2022-09-03T08:34:24.056Z,20.97
2022-09-03T08:36:54.642Z,21.11
2022-09-03T08:39:23.981Z,21.16
2022-09-03T08:41:56.544Z,21.19
2022-09-03T08:44:39.059Z,21.36
2022-09-03T08:47:26.923Z,21.53
2022-09-03T08:50:02.395Z,21.74
2022-09-03T08:52:34.670Z,21.93
2022-09-03T08:55:18.959Z,22.02
2022-09-03T08:57:57.893Z,22.20
2022-09-03T09:00:30.557Z,22.17
2022-09-03T09:03:31.782Z,22.34
2022-09-03T09:06:38.919Z,22.47
2022-09-03T09:09:14.698Z,22.58
2022-09-03T09:12:11.055Z,22.96
2022-09-03T09:15:08.102Z,22.96
2022-09-03T09:17:51.183Z,23.23
2022-09-03T09:20:26.601Z,23.55
2022-09-03T09:22:59.025Z,23.90
2022-09-03T09:25:27.830Z,23.97
2022-09-03T09:28:24.016Z,24.31
2022-09-03T09:30:55.691Z,24.43
2022-09-03T09:33:25.869Z,24.96
2022-09-03T09:35:55.168Z,25.68
2022-09-03T09:38:38.708Z,26.52
2022-09-03T09:41:20.251Z,27.07
2022-09-03T09:43:51.552Z,28.95
2022-09-03T09:46:27.265Z,31.10
2022-09-03T09:48:58.887Z,31.78
2022-09-03T09:51:32.385Z,32.09
2022-09-03T09:54:07.394Z,33.39
2022-09-03T09:56:36.924Z,34.16
2022-09-03T09:59:11.219Z,35.13
2022-09-03T10:01:45.627Z,33.53
2022-09-03T10:04:32.385Z,33.04
2022-09-03T10:07:07.882Z,33.23
2022-09-03T10:09:37.200Z,34.23
2022-09-03T10:12:15.793Z,33.72
2022-09-03T10:15:00.196Z,34.30
2022-09-03T10:17:47.135Z,34.66
2022-09-03T10:20:31.507Z,34.48
2022-09-03T10:23:16.305Z,33.25
2022-09-03T10:26:09.746Z,35.08
2022-09-03T10:28:41.788Z,34.06
2022-09-03T10:31:27.067Z,33.40
2022-09-03T10:34:14.521Z,32.15
2022-09-03T10:36:52.603Z,30.74
2022-09-03T10:39:42.901Z,32.25
2022-09-03T10:42:37.431Z,33.08
2022-09-03T10:45:24.693Z,34.11
2022-09-03T10:48:05.991Z,34.73
2022-09-03T10:50:48.834Z,34.58
2022-09-03T10:53:49.725Z,34.97
2022-09-03T10:56:22.790Z,35.95
2022-09-03T10:59:11.902Z,35.14
2022-09-03T11:02:05.495Z,35.49
2022-09-03T11:04:47.005Z,35.29
2022-09-03T11:07:19.050Z,34.80
2022-09-03T11:10:08.831Z,35.52
2022-09-03T11:12:41.254Z,35.51
2022-09-03T11:15:16.771Z,34.74
2022-09-03T11:17:52.143Z,34.41
2022-09-03T11:20:23.480Z,34.82
2022-09-03T11:22:55.653Z,34.06
2022-09-03T11:25:28.694Z,34.93
2022-09-03T11:28:11.689Z,35.87
2022-09-03T11:30:53.144Z,35.10
2022-09-03T11:33:25.247Z,34.89
2022-09-03T11:36:01.573Z,35.94
2022-09-03T11:38:34.614Z,36.07
2022-09-03T11:41:07.201Z,35.74
2022-09-03T11:43:37.826Z,34.02
2022-09-03T11:46:16.488Z,34.65
2022-09-03T11:49:00.521Z,35.20
2022-09-03T11:51:33.876Z,36.05
2022-09-03T11:54:09.720Z,35.57
2022-09-03T11:56:39.017Z,36.12
2022-09-03T11:59:17.668Z,34.56
2022-09-03T12:01:55.012Z,34.80
2022-09-03T12:04:28.339Z,34.14
2022-09-03T12:07:23.542Z,34.75
2022-09-03T12:10:13.229Z,34.78
2022-09-03T12:12:54.879Z,34.90
2022-09-03T12:15:27.828Z,34.98
2022-09-03T12:18:19.890Z,33.59
2022-09-03T12:20:55.934Z,33.74
2022-09-03T12:23:44.757Z,32.88
2022-09-03T12:26:16.368Z,32.18
2022-09-03T12:28:48.765Z,32.50
2022-09-03T12:31:24.985Z,33.40
2022-09-03T12:33:58.136Z,33.16
2022-09-03T12:36:30.078Z,32.86
2022-09-03T12:39:18.202Z,32.18
2022-09-03T12:41:33.718Z,32.21
2022-09-03T12:44:03.784Z,33.03
2022-09-03T12:46:35.078Z,33.00
2022-09-03T12:51:53.304Z,34.11
2022-09-03T12:54:17.680Z,33.63
2022-09-03T12:56:49.705Z,33.78
2022-09-03T12:59:20.761Z,33.06
2022-09-03T13:02:01.801Z,33.56
2022-09-03T13:04:35.866Z,33.30
2022-09-03T13:07:08.338Z,33.10
2022-09-03T13:09:39.458Z,32.99
2022-09-03T13:12:10.865Z,33.13
2022-09-03T13:14:44.622Z,33.49
2022-09-03T13:17:38.053Z,33.03
2022-09-03T13:20:30.194Z,31.50
2022-09-03T13:23:09.182Z,31.63
2022-09-03T13:26:06.258Z,32.06
2022-09-03T13:28:58.952Z,31.33
2022-09-03T13:31:34.248Z,32.53
2022-09-03T13:34:12.687Z,32.28
2022-09-03T13:36:53.510Z,32.42
2022-09-03T13:39:55.821Z,32.37
2022-09-03T13:42:33.903Z,31.94
2022-09-03T13:45:08.710Z,31.41
2022-09-03T13:47:42.688Z,31.38
2022-09-03T13:50:23.231Z,31.35
2022-09-03T13:53:01.894Z,31.50
2022-09-03T13:55:51.708Z,31.17
2022-09-03T13:58:24.384Z,31.03
2022-09-03T14:01:07.547Z,30.85
2022-09-03T14:03:48.998Z,31.27
2022-09-03T14:06:32.460Z,31.27
2022-09-03T14:09:30.618Z,31.50
2022-09-03T14:12:08.809Z,31.13
2022-09-03T14:14:55.178Z,30.65
2022-09-03T14:17:51.891Z,30.34
2022-09-03T14:20:36.410Z,31.00
2022-09-03T14:23:35.996Z,31.41
2022-09-03T14:26:07.712Z,30.98
2022-09-03T14:28:39.177Z,30.53
2022-09-03T14:31:28.345Z,31.02
2022-09-03T14:34:00.798Z,31.14
2022-09-03T14:36:33.504Z,30.71
2022-09-03T14:39:08.543Z,30.91
2022-09-03T14:41:56.491Z,30.61
2022-09-03T14:45:03.267Z,30.80
2022-09-03T14:47:58.643Z,30.22
2022-09-03T14:50:58.357Z,29.68
2022-09-03T14:53:37.255Z,29.96
2022-09-03T14:56:24.961Z,29.68
2022-09-03T14:58:58.681Z,29.90
2022-09-03T15:01:39.460Z,29.80
2022-09-03T15:04:19.698Z,30.14
2022-09-03T15:06:52.095Z,30.11
2022-09-03T15:09:33.651Z,29.91
2022-09-03T15:12:06.059Z,29.57
2022-09-03T15:14:44.335Z,29.33
2022-09-03T15:17:33.578Z,29.59
2022-09-03T15:20:24.518Z,28.96
2022-09-03T15:23:14.805Z,29.40
2022-09-03T15:26:10.041Z,29.29
2022-09-03T15:29:16.084Z,29.37
2022-09-03T15:32:12.975Z,29.41
2022-09-03T15:34:59.191Z,29.55
2022-09-03T15:37:31.504Z,29.72
2022-09-03T15:40:10.313Z,29.63
2022-09-03T15:42:39.866Z,29.10
2022-09-03T15:45:24.544Z,28.97
2022-09-03T15:47:57.022Z,28.43
2022-09-03T15:50:35.518Z,28.00
2022-09-03T15:53:08.457Z,27.91
2022-09-03T15:55:43.205Z,27.67
2022-09-03T15:58:24.374Z,27.50
2022-09-03T16:01:14.960Z,27.26
2022-09-03T16:04:20.772Z,27.48
2022-09-03T16:07:05.178Z,27.70
2022-09-03T16:09:57.506Z,27.87
2022-09-03T16:12:29.527Z,27.91
2022-09-03T16:15:23.414Z,27.85
2022-09-03T16:18:12.237Z,28.04
2022-09-03T16:21:00.116Z,28.01
2022-09-03T16:23:35.541Z,27.98
2022-09-03T16:26:08.144Z,27.79
2022-09-03T16:28:52.869Z,27.48
2022-09-03T16:31:58.375Z,27.25
2022-09-03T16:34:54.755Z,26.93
2022-09-03T16:37:44.006Z,26.75
2022-09-03T16:40:35.891Z,26.62
2022-09-03T16:43:41.690Z,26.70
2022-09-03T16:46:17.217Z,26.62
2022-09-03T16:48:58.720Z,26.46
2022-09-03T16:51:37.104Z,26.44
2022-09-03T16:54:19.891Z,26.39
2022-09-03T16:57:07.271Z,26.33
2022-09-03T17:00:10.148Z,26.22
2022-09-03T17:02:49.819Z,26.05
2022-09-03T17:05:37.421Z,26.14
2022-09-03T17:08:22.252Z,26.16
2022-09-03T17:11:22.020Z,25.97
2022-09-03T17:13:54.613Z,25.99
2022-09-03T17:16:33.093Z,25.92
2022-09-03T17:19:20.448Z,25.91
2022-09-03T17:22:17.167Z,25.85
2022-09-03T17:25:01.704Z,25.66
2022-09-03T17:27:50.542Z,25.60
2022-09-03T17:30:24.105Z,25.56
2022-09-03T17:33:01.238Z,25.56
2022-09-03T17:35:54.395Z,25.49
2022-09-03T17:38:45.543Z,25.42
2022-09-03T17:41:52.047Z,25.35
2022-09-03T17:44:51.620Z,25.15
2022-09-03T17:47:32.980Z,24.90
2022-09-03T17:50:11.690Z,24.81
2022-09-03T17:52:43.664Z,24.56
2022-09-03T17:55:39.547Z,24.34
2022-09-03T17:58:23.706Z,24.18
2022-09-03T18:01:14.368Z,24.02
2022-09-03T18:04:04.957Z,23.90
2022-09-03T18:06:47.210Z,23.85
2022-09-03T18:09:38.124Z,23.78
2022-09-03T18:12:16.218Z,23.66
2022-09-03T18:14:56.873Z,23.53
2022-09-03T18:17:38.402Z,23.51
2022-09-03T18:20:27.871Z,23.46
2022-09-03T18:23:24.099Z,23.40
2022-09-03T18:26:16.217Z,23.28
2022-09-03T18:29:12.815Z,23.14
2022-09-03T18:32:00.092Z,23.02
2022-09-03T18:34:52.328Z,22.91
2022-09-03T18:37:45.157Z,22.81
2022-09-03T18:40:42.151Z,22.76
2022-09-03T18:43:53.400Z,22.75
2022-09-03T18:50:13.369Z,22.76
2022-09-03T18:53:07.576Z,22.78
2022-09-03T18:56:15.595Z,22.79
2022-09-03T18:59:29.908Z,22.81
2022-09-03T19:02:17.650Z,22.80
2022-09-03T19:05:14.196Z,22.69
2022-09-03T19:08:16.263Z,22.28
2022-09-03T19:11:11.708Z,22.09
2022-09-03T19:14:00.313Z,22.00
2022-09-03T19:17:07.208Z,22.00
2022-09-03T19:20:09.213Z,21.96
2022-09-03T19:22:58.551Z,21.84
2022-09-03T19:25:47.985Z,21.73
2022-09-03T19:28:39.725Z,21.56
2022-09-03T19:31:35.585Z,21.29
2022-09-03T19:34:59.018Z,21.15
2022-09-03T19:37:56.248Z,20.96
2022-09-03T19:41:18.310Z,20.94
2022-09-03T19:44:08.447Z,20.93
2022-09-03T19:47:07.895Z,20.97
2022-09-03T19:50:21.137Z,21.01
2022-09-03T19:53:19.411Z,21.10
2022-09-03T19:56:14.632Z,21.31
2022-09-03T19:59:10.677Z,21.41
2022-09-03T20:01:58.110Z,21.46
2022-09-03T20:04:59.880Z,21.57
2022-09-03T20:07:47.070Z,21.97
2022-09-03T20:10:22.999Z,22.07
2022-09-03T20:12:58.492Z,22.13
2022-09-03T20:15:31.098Z,22.14
2022-09-03T20:18:18.109Z,22.15
2022-09-03T20:21:02.560Z,22.14
2022-09-03T20:23:54.289Z,22.15
2022-09-03T20:26:45.953Z,22.12
2022-09-03T20:29:27.256Z,22.10
2022-09-03T20:32:14.372Z,22.07
2022-09-03T20:34:58.912Z,22.00
2022-09-03T20:37:31.456Z,21.96
2022-09-03T20:40:06.188Z,21.86
2022-09-03T20:42:55.125Z,21.79
2022-09-03T20:45:27.228Z,21.73
2022-09-03T20:48:19.395Z,21.64
2022-09-03T20:51:01.205Z,21.60
2022-09-03T20:53:57.672Z,21.57
2022-09-03T20:56:36.258Z,21.55
2022-09-03T20:59:23.754Z,21.59
2022-09-03T21:01:56.299Z,21.59
2022-09-03T21:04:40.640Z,21.61
2022-09-03T21:07:15.797Z,21.61
2022-09-03T21:10:03.347Z,21.51
2022-09-03T21:12:35.931Z,21.41
2022-09-03T21:15:06.148Z,21.34
2022-09-03T21:17:54.891Z,21.30
2022-09-03T21:20:39.017Z,21.25
2022-09-03T21:23:34.859Z,21.19
2022-09-03T21:26:21.562Z,21.21
2022-09-03T21:29:00.017Z,21.21
2022-09-03T21:31:41.720Z,21.18
2022-09-03T21:34:14.288Z,21.15
2022-09-03T21:36:43.634Z,21.10
2022-09-03T21:39:31.222Z,21.02
2022-09-03T21:42:06.455Z,21.06
2022-09-03T21:44:44.635Z,21.04
2022-09-03T21:47:18.770Z,21.03
2022-09-03T21:50:03.272Z,21.01
2022-09-03T21:52:45.333Z,21.03
2022-09-03T21:55:32.846Z,21.03
2022-09-03T21:58:32.679Z,21.05
2022-09-03T22:01:07.935Z,20.98
2022-09-03T22:03:37.247Z,20.97
2022-09-03T22:06:09.678Z,20.90
2022-09-03T22:08:43.873Z,20.80
2022-09-03T22:11:33.188Z,20.74
2022-09-03T22:14:11.280Z,20.65
2022-09-03T22:16:55.803Z,20.56
2022-09-03T22:19:25.466Z,20.46
2022-09-03T22:21:59.850Z,20.41
2022-09-03T22:24:33.316Z,20.40
2022-09-03T22:27:12.237Z,20.35
2022-09-03T22:29:45.210Z,20.31
2022-09-03T22:32:26.443Z,20.28
2022-09-03T22:35:14.219Z,20.27
2022-09-03T22:37:58.657Z,20.26
2022-09-03T22:40:50.698Z,20.16
2022-09-03T22:43:41.421Z,20.17
2022-09-03T22:46:15.827Z,20.19
2022-09-03T22:49:13.913Z,20.19
2022-09-03T22:51:49.088Z,20.20
2022-09-03T22:54:48.666Z,20.16
2022-09-03T22:57:19.835Z,20.06
2022-09-03T22:59:58.267Z,19.87
2022-09-03T23:02:29.760Z,19.81
2022-09-03T23:05:17.703Z,19.76
2022-09-03T23:07:55.567Z,19.71
2022-09-03T23:10:44.065Z,19.67
2022-09-03T23:13:19.657Z,19.59
2022-09-03T23:15:52.346Z,19.37
2022-09-03T23:18:26.205Z,19.14
2022-09-03T23:21:20.289Z,19.01
2022-09-03T23:24:02.633Z,18.90
2022-09-03T23:26:43.985Z,18.78
2022-09-03T23:29:31.252Z,18.74
2022-09-03T23:32:01.427Z,18.72
2022-09-03T23:34:30.737Z,18.67
2022-09-03T23:37:40.049Z,18.61
2022-09-03T23:40:17.101Z,18.63
2022-09-03T23:43:19.631Z,18.63
2022-09-03T23:46:25.668Z,18.62
2022-09-03T23:49:13.274Z,18.59
2022-09-03T23:52:03.604Z,18.54
2022-09-03T23:54:57.148Z,18.55
2022-09-03T23:57:32.429Z,18.54
